Time;durP1;ratioP1;P1;durP2;ratioP2;P2;SDS_P1;SDS_P2;PMS_P1;PMS_P2;Temp;Humidity;BMP_temperature;BMP_pressure;BME280_temperature;BME280_humidity;BME280_pressure;Samples;Min_cycle;Max_cycle;Signal;HPM_P1;HPM_P2
2022/04/27 00:00:34;;;;;;;13.33;11.93;;;9.60;99.90;;;;;;5011886;28;20192;-60
2022/04/27 00:03:01;;;;;;;10.87;9.83;;;9.50;99.90;;;;;;5004003;28;20361;-61
2022/04/27 00:05:28;;;;;;;10.90;9.80;;;9.50;99.90;;;;;;5011779;28;20279;-59
2022/04/27 00:07:54;;;;;;;11.03;9.93;;;9.50;99.90;;;;;;5011704;28;20200;-60
2022/04/27 00:10:20;;;;;;;11.47;10.37;;;9.60;99.90;;;;;;5012059;28;20180;-58
2022/04/27 00:12:46;;;;;;;11.07;9.87;;;9.70;99.90;;;;;;5008453;28;20574;-62
2022/04/27 00:15:13;;;;;;;11.87;10.67;;;9.70;99.90;;;;;;5027817;28;20261;-60
2022/04/27 00:17:39;;;;;;;11.93;10.70;;;9.80;99.90;;;;;;5031603;28;20164;-59
2022/04/27 00:20:06;;;;;;;11.50;10.40;;;9.80;99.90;;;;;;5031666;28;20237;-58
2022/04/27 00:22:32;;;;;;;11.40;10.30;;;9.60;99.90;;;;;;5031344;28;20183;-61
2022/04/27 00:25:00;;;;;;;11.00;9.90;;;9.60;99.90;;;;;;5033557;28;20577;-61
2022/04/27 00:27:27;;;;;;;9.90;8.77;;;9.60;99.90;;;;;;5035929;28;20171;-57
2022/04/27 00:29:53;;;;;;;10.73;9.63;;;9.70;99.90;;;;;;5012939;28;20216;-58
2022/04/27 00:32:18;;;;;;;10.83;9.83;;;9.70;99.90;;;;;;5016830;28;20223;-55
2022/04/27 00:34:44;;;;;;;12.20;11.00;;;9.70;99.90;;;;;;5014410;28;20188;-59
2022/04/27 00:37:09;;;;;;;9.90;9.00;;;9.70;99.90;;;;;;5015661;28;20206;-58
2022/04/27 00:39:35;;;;;;;11.20;10.13;;;9.60;99.90;;;;;;5016027;28;20203;-60
2022/04/27 00:42:24;;;;;;;10.47;9.47;;;9.70;99.90;;;;;;5015652;28;20176;-58
2022/04/27 00:44:50;;;;;;;11.30;10.20;;;9.70;99.90;;;;;;5015569;28;20192;-61
2022/04/27 00:47:17;;;;;;;9.77;8.80;;;9.70;99.90;;;;;;5015579;28;20250;-57
2022/04/27 00:49:51;;;;;;;12.13;10.93;;;9.70;99.90;;;;;;5015462;28;20176;-58
2022/04/27 00:52:18;;;;;;;11.53;10.37;;;9.60;99.90;;;;;;5015291;28;20665;-58
2022/04/27 00:54:51;;;;;;;10.93;9.93;;;9.40;99.90;;;;;;5015269;28;20290;-58
2022/04/27 00:57:18;;;;;;;12.63;11.33;;;9.40;99.90;;;;;;5014087;28;20259;-60
2022/04/27 00:59:45;;;;;;;11.00;9.83;;;9.40;99.90;;;;;;5015399;28;20684;-59
2022/04/27 01:02:11;;;;;;;10.87;9.80;;;9.50;99.90;;;;;;5013812;28;20179;-58
2022/04/27 01:04:38;;;;;;;11.33;10.23;;;9.60;99.90;;;;;;5015570;28;20666;-60
2022/04/27 01:07:04;;;;;;;11.73;10.60;;;9.70;99.90;;;;;;5015242;28;20196;-61
2022/04/27 01:09:32;;;;;;;11.17;10.00;;;9.80;99.90;;;;;;5015285;28;20215;-58
2022/04/27 01:11:58;;;;;;;12.13;10.93;;;9.90;99.90;;;;;;5015056;28;20618;-59
2022/04/27 01:14:24;;;;;;;11.57;10.37;;;10.00;99.90;;;;;;5014697;28;20231;-60
2022/04/27 01:16:51;;;;;;;12.13;10.83;;;10.10;99.90;;;;;;5014984;28;20171;-61
2022/04/27 01:19:17;;;;;;;10.80;9.80;;;10.10;99.90;;;;;;5015082;28;20208;-58
2022/04/27 01:21:43;;;;;;;11.40;10.27;;;10.10;99.90;;;;;;5015066;28;20172;-56
2022/04/27 01:24:10;;;;;;;12.90;11.60;;;10.10;99.90;;;;;;5014531;28;20662;-59
2022/04/27 01:26:37;;;;;;;14.07;12.67;;;10.10;99.90;;;;;;5015034;28;20172;-59
2022/04/27 01:29:02;;;;;;;11.00;10.00;;;9.90;99.90;;;;;;5014820;28;20608;-60
2022/04/27 01:31:28;;;;;;;12.13;10.93;;;9.80;99.90;;;;;;5014769;28;20331;-60
2022/04/27 01:33:55;;;;;;;11.17;10.07;;;9.70;99.90;;;;;;5014276;28;20184;-59
2022/04/27 01:36:20;;;;;;;13.70;12.30;;;9.60;99.90;;;;;;5014142;28;20171;-59
2022/04/27 01:38:46;;;;;;;11.10;10.03;;;9.60;99.90;;;;;;5014926;28;20169;-57
2022/04/27 01:41:12;;;;;;;11.57;10.37;;;9.50;99.90;;;;;;5014724;28;20199;-55
2022/04/27 01:43:38;;;;;;;9.83;8.93;;;9.50;99.90;;;;;;5014979;28;20192;-60
2022/04/27 01:46:07;;;;;;;12.93;11.63;;;9.40;99.90;;;;;;5014625;28;20258;-58
2022/04/27 01:48:33;;;;;;;12.27;11.07;;;9.40;99.90;;;;;;5014721;28;20177;-54
2022/04/27 01:50:59;;;;;;;11.83;10.67;;;9.40;99.90;;;;;;5014469;28;20201;-56
2022/04/27 01:56:09;;;;;;;10.27;9.27;;;9.50;99.90;;;;;;5014468;28;20175;-60
2022/04/27 01:58:34;;;;;;;10.73;9.73;;;9.60;99.90;;;;;;5014202;28;20196;-59
2022/04/27 02:01:00;;;;;;;10.50;9.50;;;9.50;99.90;;;;;;5014316;28;20172;-55
2022/04/27 02:03:26;;;;;;;12.17;10.80;;;9.60;99.90;;;;;;5013905;28;20205;-58
2022/04/27 02:05:56;;;;;;;12.30;11.10;;;9.70;99.90;;;;;;5014101;28;20177;-58
2022/04/27 02:08:22;;;;;;;12.23;10.93;;;9.70;99.90;;;;;;5014023;28;20172;-59
2022/04/27 02:10:47;;;;;;;11.10;10.10;;;9.70;99.90;;;;;;5007067;28;20181;-57
2022/04/27 02:13:13;;;;;;;11.63;10.53;;;9.70;99.90;;;;;;5013067;28;20630;-57
2022/04/27 02:15:39;;;;;;;10.43;9.43;;;9.70;99.90;;;;;;5013928;28;20597;-58
2022/04/27 02:18:06;;;;;;;10.20;9.20;;;9.60;99.90;;;;;;5013792;28;20164;-59
2022/04/27 02:20:32;;;;;;;11.10;10.00;;;9.60;99.90;;;;;;5013921;28;20786;-59
2022/04/27 02:22:57;;;;;;;10.73;9.73;;;9.60;99.90;;;;;;5013540;28;20168;-56
2022/04/27 02:25:23;;;;;;;11.20;10.10;;;9.70;99.90;;;;;;5013433;28;20666;-58
2022/04/27 02:27:49;;;;;;;10.57;9.57;;;9.80;99.90;;;;;;5013759;28;20172;-57
2022/04/27 02:30:16;;;;;;;11.10;10.00;;;9.80;99.90;;;;;;5013763;28;20641;-56
2022/04/27 02:32:42;;;;;;;11.23;10.17;;;9.90;99.90;;;;;;5013342;28;20204;-58
2022/04/27 02:35:08;;;;;;;10.53;9.53;;;10.00;99.90;;;;;;5013515;28;20658;-56
2022/04/27 02:37:35;;;;;;;11.30;10.20;;;10.10;99.90;;;;;;5012338;28;20177;-58
2022/04/27 02:40:02;;;;;;;11.30;10.20;;;10.20;99.90;;;;;;5013490;28;20165;-56
2022/04/27 02:42:27;;;;;;;10.37;9.37;;;10.20;99.90;;;;;;5013016;28;20562;-58
2022/04/27 02:44:53;;;;;;;10.63;9.63;;;10.20;99.90;;;;;;5013348;28;20188;-58
2022/04/27 02:47:19;;;;;;;10.17;9.27;;;10.20;99.90;;;;;;5012293;28;20173;-58
2022/04/27 02:52:28;;;;;;;13.00;11.73;;;10.20;99.90;;;;;;5012942;28;20304;-58
2022/04/27 02:54:55;;;;;;;12.33;11.13;;;10.20;99.90;;;;;;5013016;28;20282;-59
2022/04/27 02:57:21;;;;;;;13.17;11.87;;;10.10;99.90;;;;;;5013125;28;20176;-57
2022/04/27 02:59:47;;;;;;;12.77;11.47;;;10.00;99.90;;;;;;5013187;28;20168;-57
2022/04/27 03:02:12;;;;;;;11.13;10.10;;;10.00;99.90;;;;;;5013113;28;20584;-58
2022/04/27 03:04:38;;;;;;;10.97;9.87;;;9.80;99.90;;;;;;5012760;28;20201;-55
2022/04/27 03:07:04;;;;;;;12.27;11.00;;;9.70;99.90;;;;;;5013044;28;20180;-59
2022/04/27 03:09:29;;;;;;;12.13;10.93;;;9.60;99.90;;;;;;5013047;28;20192;-58
2022/04/27 03:11:55;;;;;;;13.30;11.73;;;9.50;99.90;;;;;;5012715;28;20339;-59
2022/04/27 03:14:21;;;;;;;16.23;10.80;;;9.50;99.90;;;;;;5012472;28;20202;-57
2022/04/27 03:16:48;;;;;;;12.73;11.47;;;9.40;99.90;;;;;;5013010;28;20199;-56
2022/04/27 03:19:13;;;;;;;12.20;10.93;;;9.40;99.90;;;;;;5012786;28;20585;-57
2022/04/27 03:21:39;;;;;;;16.23;14.63;;;9.40;99.90;;;;;;5012774;28;20177;-56
2022/04/27 03:24:05;;;;;;;15.57;14.10;;;10.30;99.90;;;;;;5012384;28;20266;-60
2022/04/27 03:26:31;;;;;;;15.37;13.87;;;9.50;99.90;;;;;;5012776;28;20176;-58
2022/04/27 03:28:58;;;;;;;15.40;13.87;;;9.40;99.90;;;;;;5012679;28;20642;-57
2022/04/27 03:31:23;;;;;;;17.57;15.70;;;9.40;99.90;;;;;;5012534;28;20666;-55
2022/04/27 03:33:49;;;;;;;16.33;14.63;;;9.30;99.90;;;;;;5012148;28;20189;-58
2022/04/27 03:36:14;;;;;;;15.43;13.90;;;9.20;99.90;;;;;;5012368;28;20597;-54
2022/04/27 03:38:41;;;;;;;15.30;13.80;;;9.20;99.90;;;;;;5012815;28;20588;-55
2022/04/27 03:41:07;;;;;;;16.23;14.63;;;9.10;99.90;;;;;;5012321;28;20254;-58
2022/04/27 03:43:33;;;;;;;15.30;13.80;;;9.10;99.90;;;;;;5012070;28;20251;-56
2022/04/27 03:45:59;;;;;;;16.13;14.43;;;9.10;99.90;;;;;;5012358;28;20176;-59
2022/04/27 03:48:24;;;;;;;17.13;15.30;;;9.10;99.90;;;;;;5012427;28;20537;-56
2022/04/27 03:50:50;;;;;;;17.50;15.70;;;9.20;99.90;;;;;;5012306;28;20202;-58
2022/04/27 03:53:15;;;;;;;15.50;14.00;;;9.20;99.90;;;;;;5011279;28;20176;-56
2022/04/27 03:55:41;;;;;;;16.40;14.63;;;9.20;99.90;;;;;;5012347;28;20210;-59
2022/04/27 03:58:06;;;;;;;17.50;15.73;;;9.10;99.90;;;;;;5011800;28;20207;-60
2022/04/27 04:00:33;;;;;;;15.37;13.67;;;8.90;99.90;;;;;;5012242;28;20172;-59
2022/04/27 04:03:00;;;;;;;16.67;14.90;;;8.80;99.90;;;;;;5011532;28;20223;-61
2022/04/27 04:05:26;;;;;;;16.00;14.40;;;8.70;99.90;;;;;;5010609;28;20629;-59
2022/04/27 04:07:52;;;;;;;18.43;16.50;;;8.60;99.90;;;;;;5012069;28;20191;-58
2022/04/27 04:10:17;;;;;;;17.00;15.03;;;8.60;99.90;;;;;;5011827;28;20180;-60
2022/04/27 04:12:46;;;;;;;18.50;16.60;;;8.60;99.90;;;;;;5010671;28;20200;-59
2022/04/27 04:15:13;;;;;;;19.00;16.10;;;8.60;99.90;;;;;;5010794;28;20214;-59
2022/04/27 04:17:45;;;;;;;18.77;16.83;;;8.60;99.90;;;;;;5011825;28;20195;-59
2022/04/27 04:20:17;;;;;;;17.50;15.67;;;8.60;99.90;;;;;;5011888;28;20176;-58
2022/04/27 04:22:43;;;;;;;15.23;13.73;;;8.70;99.90;;;;;;5010620;28;20180;-59
2022/04/27 04:30:38;;;;;;;16.73;14.63;;;8.60;99.90;;;;;;5011653;28;20198;-61
2022/04/27 04:33:04;;;;;;;15.83;14.13;;;8.60;99.90;;;;;;5010433;28;20176;-59
2022/04/27 04:35:29;;;;;;;16.90;15.13;;;8.70;99.90;;;;;;5011237;28;20192;-61
2022/04/27 04:37:55;;;;;;;16.70;14.93;;;8.60;99.90;;;;;;5010874;28;20200;-62
2022/04/27 04:40:20;;;;;;;17.20;15.40;;;8.60;99.90;;;;;;5010762;28;20176;-60
2022/04/27 04:42:46;;;;;;;16.10;14.40;;;8.70;99.90;;;;;;5010478;28;20223;-58
2022/04/27 04:45:12;;;;;;;18.27;16.30;;;8.70;99.90;;;;;;5011567;28;20196;-58
2022/04/27 04:47:38;;;;;;;17.10;14.87;;;8.70;99.90;;;;;;5011696;28;20183;-59
2022/04/27 04:50:04;;;;;;;16.40;14.70;;;8.70;99.90;;;;;;5010767;28;20663;-60
2022/04/27 04:52:29;;;;;;;17.03;15.23;;;8.80;99.90;;;;;;5011256;28;20216;-59
2022/04/27 04:54:55;;;;;;;16.40;14.70;;;8.80;99.90;;;;;;5009770;28;20596;-59
2022/04/27 04:57:20;;;;;;;17.00;15.30;;;8.70;99.90;;;;;;5011575;28;20262;-58
2022/04/27 04:59:46;;;;;;;16.57;14.83;;;8.50;99.90;;;;;;5011241;28;20184;-57
2022/04/27 05:02:11;;;;;;;16.17;14.40;;;8.40;99.90;;;;;;5011027;28;20203;-59
2022/04/27 05:04:37;;;;;;;17.93;16.03;;;8.40;99.90;;;;;;5009241;28;20200;-60
2022/04/27 05:07:02;;;;;;;17.40;15.33;;;8.40;99.90;;;;;;5009848;28;20208;-58
2022/04/27 05:09:28;;;;;;;17.13;15.43;;;8.30;99.90;;;;;;5011359;28;20211;-58
2022/04/27 05:11:54;;;;;;;16.57;14.87;;;8.20;99.90;;;;;;5014037;28;20200;-55
2022/04/27 05:14:19;;;;;;;16.37;14.67;;;8.20;99.90;;;;;;5013603;28;20733;-56
2022/04/27 05:16:45;;;;;;;16.63;14.93;;;8.30;99.90;;;;;;5015307;28;20589;-59
2022/04/27 05:19:10;;;;;;;16.50;14.57;;;8.30;99.90;;;;;;5015018;28;20176;-58
2022/04/27 05:21:36;;;;;;;15.10;13.53;;;8.40;99.90;;;;;;5014992;28;20551;-57
2022/04/27 05:24:01;;;;;;;15.43;13.83;;;8.40;99.90;;;;;;5014512;28;20231;-58
2022/04/27 05:26:27;;;;;;;15.83;13.63;;;8.30;99.90;;;;;;5013793;28;20187;-58
2022/04/27 05:31:54;;;;;;;15.60;14.00;;;8.30;99.90;;;;;;5010800;28;20211;-60
2022/04/27 05:34:24;;;;;;;14.80;13.30;;;8.30;99.90;;;;;;5024574;28;20253;-53
2022/04/27 05:36:50;;;;;;;15.97;14.30;;;8.30;99.90;;;;;;5034645;28;20172;-58
2022/04/27 05:39:18;;;;;;;15.07;13.57;;;8.40;99.90;;;;;;5034473;28;20203;-57
2022/04/27 05:41:43;;;;;;;15.90;14.27;;;8.50;99.90;;;;;;5034100;28;20168;-59
2022/04/27 05:44:09;;;;;;;15.40;13.40;;;8.60;99.90;;;;;;5034006;28;20673;-60
2022/04/27 05:46:39;;;;;;;16.13;14.50;;;8.60;99.90;;;;;;5034310;28;20188;-59
2022/04/27 05:49:05;;;;;;;15.57;13.30;;;8.70;99.90;;;;;;5034467;28;20537;-57
2022/04/27 05:51:31;;;;;;;15.43;13.93;;;8.80;99.90;;;;;;5034194;28;20215;-59
2022/04/27 05:53:57;;;;;;;14.40;13.00;;;8.90;99.90;;;;;;5033419;28;20215;-57
2022/04/27 05:56:24;;;;;;;14.97;13.47;;;9.10;99.90;;;;;;5034289;28;20183;-60
2022/04/27 05:58:50;;;;;;;14.97;13.40;;;9.00;99.90;;;;;;5034028;28;20633;-60
2022/04/27 06:01:16;;;;;;;14.53;13.03;;;9.00;99.90;;;;;;5034169;28;20184;-56
2022/04/27 06:03:41;;;;;;;14.27;12.77;;;9.10;99.90;;;;;;5009635;28;20342;-58
2022/04/27 06:06:07;;;;;;;14.10;12.70;;;9.30;99.90;;;;;;5014239;28;20546;-61
2022/04/27 06:08:33;;;;;;;14.23;12.83;;;9.60;99.90;;;;;;5014207;28;20539;-61
2022/04/27 06:10:58;;;;;;;14.77;13.27;;;9.80;99.90;;;;;;5014022;28;20219;-60
2022/04/27 06:13:24;;;;;;;15.00;13.47;;;9.90;99.90;;;;;;5012560;28;20666;-59
2022/04/27 06:15:50;;;;;;;15.53;13.93;;;10.10;99.90;;;;;;5013904;28;20195;-61
2022/04/27 06:18:16;;;;;;;15.87;14.27;;;10.20;99.90;;;;;;5014638;28;20173;-53
2022/04/27 06:20:42;;;;;;;18.87;15.93;;;10.30;99.90;;;;;;5013622;28;20180;-60
2022/04/27 06:23:07;;;;;;;17.70;15.70;;;10.30;99.90;;;;;;5013918;28;20180;-60
2022/04/27 06:25:34;;;;;;;15.67;14.00;;;10.30;99.90;;;;;;5032418;28;20175;-60
2022/04/27 06:28:00;;;;;;;16.43;14.73;;;10.20;99.90;;;;;;5032165;28;20179;-57
2022/04/27 06:30:26;;;;;;;18.17;15.47;;;10.30;99.90;;;;;;5033478;28;20180;-58
2022/04/27 06:32:51;;;;;;;16.83;15.13;;;10.30;99.90;;;;;;5033003;28;20199;-60
2022/04/27 06:35:17;;;;;;;17.53;15.67;;;10.40;99.90;;;;;;5033247;28;20195;-61
2022/04/27 06:37:43;;;;;;;16.80;15.10;;;10.50;99.90;;;;;;5033112;28;20172;-59
2022/04/27 06:40:10;;;;;;;17.10;15.30;;;10.60;99.90;;;;;;5033039;28;20172;-59
2022/04/27 06:42:36;;;;;;;17.27;15.47;;;10.60;99.90;;;;;;5032865;28;20179;-57
2022/04/27 06:45:03;;;;;;;18.67;15.97;;;10.60;99.90;;;;;;5004305;28;20351;-61
2022/04/27 06:47:28;;;;;;;16.20;14.60;;;10.60;99.90;;;;;;5000566;28;20188;-60
2022/04/27 06:49:54;;;;;;;17.03;15.33;;;10.70;99.90;;;;;;5007635;28;20183;-62
2022/04/27 06:52:19;;;;;;;17.20;15.07;;;10.90;99.90;;;;;;5012465;28;20204;-60
2022/04/27 06:54:45;;;;;;;16.97;15.27;;;10.90;99.90;;;;;;5010122;28;20266;-59
2022/04/27 06:57:11;;;;;;;16.43;14.83;;;11.00;99.90;;;;;;5011815;28;20169;-62
2022/04/27 06:59:37;;;;;;;17.57;15.77;;;11.00;99.90;;;;;;5013059;28;20207;-59
2022/04/27 07:02:03;;;;;;;16.03;14.43;;;12.00;99.90;;;;;;5006414;28;20292;-62
2022/04/27 07:04:31;;;;;;;16.63;14.93;;;10.70;99.90;;;;;;5012500;28;20200;-58
2022/04/27 07:06:57;;;;;;;17.23;15.43;;;10.70;99.90;;;;;;5012975;28;20169;-60
2022/04/27 07:09:23;;;;;;;17.10;15.40;;;10.70;99.90;;;;;;5012740;28;20234;-59
2022/04/27 07:11:49;;;;;;;16.77;14.90;;;10.70;99.90;;;;;;5012938;28;20547;-59
2022/04/27 07:14:16;;;;;;;16.40;14.70;;;10.70;99.90;;;;;;5010786;28;20223;-59
2022/04/27 07:16:43;;;;;;;16.20;13.97;;;10.80;99.90;;;;;;5012045;28;20164;-59
2022/04/27 07:19:08;;;;;;;15.90;14.30;;;10.90;99.90;;;;;;5010793;28;20213;-60
2022/04/27 07:21:34;;;;;;;16.80;14.97;;;12.30;99.90;;;;;;5012447;28;20192;-56
2022/04/27 07:24:02;;;;;;;17.27;15.50;;;10.90;99.90;;;;;;5012171;28;20207;-61
2022/04/27 07:26:28;;;;;;;18.17;16.37;;;10.70;99.90;;;;;;5012587;28;20184;-59
2022/04/27 07:28:55;;;;;;;17.03;14.50;;;10.50;99.90;;;;;;5012658;28;20176;-61
2022/04/27 07:31:21;;;;;;;15.90;14.30;;;10.40;99.90;;;;;;5012391;28;20291;-58
2022/04/27 07:33:47;;;;;;;17.40;15.47;;;10.20;99.90;;;;;;5017373;28;20780;-59
2022/04/27 07:36:12;;;;;;;16.73;15.03;;;10.10;99.90;;;;;;5032085;28;20184;-59
2022/04/27 07:38:38;;;;;;;16.30;14.70;;;10.10;99.90;;;;;;5026708;28;20217;-61
2022/04/27 07:41:05;;;;;;;15.73;14.13;;;10.20;99.90;;;;;;5011974;28;20202;-61
2022/04/27 07:43:30;;;;;;;16.73;15.00;;;10.30;99.90;;;;;;5011015;28;20200;-60
2022/04/27 07:45:56;;;;;;;16.10;14.50;;;10.30;99.90;;;;;;5014385;28;20322;-61
2022/04/27 07:48:21;;;;;;;14.87;13.23;;;10.40;99.90;;;;;;5013206;28;20218;-59
2022/04/27 07:50:47;;;;;;;14.93;13.43;;;10.70;99.90;;;;;;5013177;28;20172;-61
2022/04/27 07:53:13;;;;;;;14.77;13.37;;;10.90;99.90;;;;;;5006420;28;20182;-60
2022/04/27 07:55:38;;;;;;;13.93;12.57;;;12.20;99.90;;;;;;5011898;28;20177;-58
2022/04/27 07:58:04;;;;;;;15.47;13.87;;;11.10;99.90;;;;;;5012470;28;20231;-60
2022/04/27 08:00:30;;;;;;;13.67;12.27;;;11.00;99.90;;;;;;5012289;28;20534;-59
2022/04/27 08:02:56;;;;;;;13.93;12.10;;;10.90;99.90;;;;;;5011942;28;20207;-58
2022/04/27 08:05:22;;;;;;;12.83;11.60;;;10.90;99.90;;;;;;5011399;28;20689;-59
2022/04/27 08:07:48;;;;;;;14.70;13.20;;;10.90;99.90;;;;;;5011860;28;20180;-58
2022/04/27 08:10:18;;;;;;;13.47;11.97;;;10.90;99.90;;;;;;5012210;28;20173;-56
2022/04/27 08:12:49;;;;;;;11.90;10.70;;;11.10;99.90;;;;;;5011410;28;20208;-59
2022/04/27 08:15:16;;;;;;;13.90;12.50;;;11.20;99.90;;;;;;5011768;28;20283;-61
2022/04/27 08:17:59;;;;;;;12.67;11.47;;;11.20;99.90;;;;;;5011872;28;20526;-57
2022/04/27 08:23:18;;;;;;;9.43;8.53;;;11.40;99.90;;;;;;5011123;28;20183;-59
2022/04/27 08:25:47;;;;;;;8.80;8.00;;;11.40;99.90;;;;;;5011558;28;20195;-62
2022/04/27 08:28:14;;;;;;;7.63;6.90;;;11.60;99.90;;;;;;5011750;28;20732;-60
2022/04/27 08:30:44;;;;;;;7.93;7.13;;;11.80;99.90;;;;;;5010093;28;20207;-57
2022/04/27 08:33:11;;;;;;;7.33;6.63;;;11.90;99.90;;;;;;5011358;28;20204;-53
2022/04/27 08:35:37;;;;;;;8.23;7.43;;;12.00;99.90;;;;;;5011503;28;20259;-55
2022/04/27 08:38:05;;;;;;;7.30;6.60;;;12.10;99.90;;;;;;5011324;28;20326;-56
2022/04/27 08:40:31;;;;;;;5.23;4.73;;;12.20;99.90;;;;;;5011789;28;20258;-58
2022/04/27 08:42:59;;;;;;;4.03;3.73;;;12.50;99.90;;;;;;5011311;28;20557;-58
2022/04/27 08:45:26;;;;;;;4.63;4.23;;;12.70;99.90;;;;;;5012167;28;20211;-59
2022/04/27 08:47:51;;;;;;;4.87;4.47;;;12.80;99.90;;;;;;5015411;28;20187;-54
2022/04/27 08:50:19;;;;;;;4.27;3.87;;;14.10;99.90;;;;;;5016386;28;20252;-55
2022/04/27 08:52:46;;;;;;;4.20;3.80;;;13.00;99.90;;;;;;5014636;28;20204;-61
2022/04/27 08:55:12;;;;;;;4.70;4.30;;;12.80;99.90;;;;;;5014866;28;20585;-57
2022/04/27 08:57:38;;;;;;;4.70;4.30;;;12.90;99.90;;;;;;5015269;28;20574;-54
2022/04/27 09:00:07;;;;;;;4.40;4.00;;;12.90;99.90;;;;;;5014986;28;20200;-56
2022/04/27 09:02:33;;;;;;;7.57;6.87;;;12.90;99.90;;;;;;5014083;28;20199;-56
2022/04/27 09:05:08;;;;;;;9.60;8.70;;;13.10;99.90;;;;;;5010592;28;20554;-54
2022/04/27 09:07:42;;;;;;;10.33;9.33;;;13.10;99.90;;;;;;5013567;28;20211;-57
2022/04/27 09:10:15;;;;;;;10.60;9.60;;;13.00;99.90;;;;;;5013001;28;20271;-59
2022/04/27 09:12:47;;;;;;;11.03;9.87;;;12.70;99.90;;;;;;5011928;28;20673;-59
2022/04/27 09:15:14;;;;;;;10.30;9.30;;;12.20;99.90;;;;;;5014631;28;20196;-55
2022/04/27 09:23:27;;;;;;;10.27;9.27;;;11.60;99.90;;;;;;5012687;28;20230;-60
2022/04/27 09:25:57;;;;;;;10.67;9.67;;;11.30;99.90;;;;;;5013722;28;20542;-55
2022/04/27 09:28:29;;;;;;;10.00;9.00;;;11.30;99.90;;;;;;5011924;28;20218;-58
2022/04/27 09:30:55;;;;;;;9.57;8.67;;;11.30;99.90;;;;;;5014343;28;20173;-56
2022/04/27 09:33:37;;;;;;;9.73;8.30;;;11.40;99.90;;;;;;5011181;28;20191;-56
2022/04/27 09:36:19;;;;;;;9.47;8.43;;;11.50;99.90;;;;;;5012048;28;20172;-57
2022/04/27 09:38:44;;;;;;;8.67;7.87;;;11.50;99.90;;;;;;5011976;28;20168;-55
2022/04/27 09:41:10;;;;;;;9.03;8.00;;;11.70;99.90;;;;;;5014298;28;20642;-59
2022/04/27 09:43:47;;;;;;;8.33;7.43;;;11.90;99.90;;;;;;5010264;28;20192;-60
2022/04/27 09:46:25;;;;;;;7.47;6.77;;;12.00;99.90;;;;;;5014228;28;20168;-55
2022/04/27 09:49:08;;;;;;;6.50;5.80;;;12.20;99.90;;;;;;5013042;28;20180;-54
2022/04/27 09:51:35;;;;;;;6.33;5.50;;;12.50;99.90;;;;;;5013363;28;20857;-57
2022/04/27 09:54:02;;;;;;;7.00;6.40;;;12.80;99.90;;;;;;5023076;28;20216;-54
2022/04/27 09:56:33;;;;;;;6.90;6.20;;;13.10;99.90;;;;;;5025214;28;20194;-58
2022/04/27 09:59:04;;;;;;;7.10;6.40;;;13.40;99.90;;;;;;5013259;28;20174;-54
2022/04/27 10:01:34;;;;;;;6.47;5.87;;;13.50;99.90;;;;;;5016599;28;20279;-57
2022/04/27 10:04:05;;;;;;;6.53;5.70;;;13.70;99.90;;;;;;5013840;28;20242;-55
2022/04/27 10:06:31;;;;;;;6.37;5.77;;;13.70;99.90;;;;;;5012588;28;20181;-55
2022/04/27 10:09:02;;;;;;;6.27;5.67;;;13.80;99.90;;;;;;5009376;28;20205;-57
2022/04/27 10:11:29;;;;;;;6.40;5.53;;;13.80;99.90;;;;;;5008049;28;20202;-58
2022/04/27 10:13:55;;;;;;;5.27;4.77;;;13.60;99.90;;;;;;5019824;28;20219;-60
2022/04/27 10:16:22;;;;;;;6.40;5.00;;;12.80;99.90;;;;;;5022178;28;20646;-59
2022/04/27 10:18:49;;;;;;;5.00;4.60;;;13.00;99.90;;;;;;5021472;28;20169;-58
2022/04/27 10:21:56;;;;;;;5.23;4.60;;;12.60;99.90;;;;;;5021494;28;20196;-62
2022/04/27 10:24:33;;;;;;;5.50;4.90;;;12.80;99.90;;;;;;5014060;28;20247;-60
2022/04/27 10:27:22;;;;;;;5.30;4.80;;;13.20;99.90;;;;;;5014309;28;20212;-61
2022/04/27 10:30:07;;;;;;;5.67;4.30;;;13.60;99.90;;;;;;5031239;28;20188;-58
2022/04/27 10:32:34;;;;;;;4.77;4.37;;;13.80;99.90;;;;;;5022888;28;20225;-60
2022/04/27 10:35:12;;;;;;;5.77;4.50;;;13.70;99.90;;;;;;5014441;28;20196;-61
2022/04/27 10:37:57;;;;;;;4.83;4.43;;;13.60;99.90;;;;;;5017550;28;20175;-59
2022/04/27 10:40:39;;;;;;;5.33;4.70;;;13.70;99.90;;;;;;5015083;28;20511;-59
2022/04/27 10:43:08;;;;;;;4.57;4.17;;;13.90;99.90;;;;;;5022031;28;20182;-58
2022/04/27 10:45:36;;;;;;;4.77;4.37;;;14.00;99.90;;;;;;5024219;28;20205;-57
2022/04/27 10:48:04;;;;;;;4.57;4.17;;;14.20;99.90;;;;;;5024352;28;20183;-58
2022/04/27 10:50:33;;;;;;;4.73;4.33;;;14.30;99.90;;;;;;5023912;28;20289;-55
2022/04/27 10:53:18;;;;;;;4.80;4.20;;;14.30;99.90;;;;;;5023624;28;20575;-59
2022/04/27 10:55:47;;;;;;;4.70;4.30;;;14.40;99.90;;;;;;5025579;28;20182;-57
2022/04/27 10:58:28;;;;;;;4.60;4.20;;;14.50;99.90;;;;;;5028774;28;20203;-57
2022/04/27 11:01:02;;;;;;;4.77;4.30;;;14.40;99.90;;;;;;5023202;28;20217;-60
2022/04/27 11:03:36;;;;;;;4.93;4.53;;;14.40;99.90;;;;;;5028586;28;20174;-57
2022/04/27 11:06:09;;;;;;;5.20;4.53;;;14.50;99.90;;;;;;5026912;28;20182;-58
2022/04/27 11:08:53;;;;;;;4.90;4.50;;;14.10;99.90;;;;;;5024362;28;20171;-59
2022/04/27 11:11:24;;;;;;;5.13;4.73;;;13.80;99.90;;;;;;5016346;28;20621;-60
2022/04/27 11:13:51;;;;;;;4.47;4.13;;;13.80;99.90;;;;;;5026007;28;20211;-61
2022/04/27 11:16:16;;;;;;;4.90;4.23;;;13.90;99.90;;;;;;5026400;28;20187;-57
2022/04/27 11:18:59;;;;;;;5.33;4.83;;;14.10;99.90;;;;;;5021507;28;20183;-57
2022/04/27 11:21:26;;;;;;;5.10;4.70;;;14.10;99.90;;;;;;5026769;28;20187;-59
2022/04/27 11:23:53;;;;;;;5.23;4.73;;;15.30;99.90;;;;;;5019519;28;20471;-54
2022/04/27 11:26:19;;;;;;;5.40;4.90;;;14.30;99.90;;;;;;5005357;28;20224;-59
2022/04/27 11:28:46;;;;;;;5.40;4.90;;;14.30;99.90;;;;;;4987011;28;20221;-57
2022/04/27 11:31:13;;;;;;;5.33;4.83;;;14.50;99.90;;;;;;5003112;28;20235;-57
2022/04/27 11:33:40;;;;;;;5.00;4.50;;;14.90;99.90;;;;;;5003960;28;20195;-54
2022/04/27 11:36:07;;;;;;;4.90;4.40;;;15.10;99.90;;;;;;5019701;28;20260;-54
2022/04/27 11:38:34;;;;;;;4.10;3.80;;;15.20;99.90;;;;;;5020930;28;20177;-57
2022/04/27 11:41:02;;;;;;;3.30;3.10;;;15.70;99.90;;;;;;5020453;28;20172;-56
2022/04/27 11:43:28;;;;;;;4.00;3.63;;;15.90;99.90;;;;;;5021171;28;20976;-58
2022/04/27 11:45:57;;;;;;;5.93;4.13;;;16.20;99.90;;;;;;5015182;28;20259;-56
2022/04/27 11:48:23;;;;;;;4.07;3.77;;;16.50;99.90;;;;;;5018479;28;20186;-57
2022/04/27 11:50:50;;;;;;;3.73;3.43;;;16.70;99.90;;;;;;5021462;28;20174;-55
2022/04/27 11:53:15;;;;;;;2.80;2.60;;;16.80;99.90;;;;;;5013496;28;20202;-57
2022/04/27 11:55:43;;;;;;;2.90;2.70;;;16.90;99.90;;;;;;5009748;28;20187;-57
2022/04/27 11:58:09;;;;;;;2.93;2.73;;;17.00;99.90;;;;;;5008940;28;20171;-57
2022/04/27 12:00:35;;;;;;;2.80;2.60;;;17.10;99.90;;;;;;5009394;28;20206;-60
2022/04/27 12:03:06;;;;;;;2.70;2.50;;;17.20;99.90;;;;;;5008112;28;20211;-58
2022/04/27 12:05:37;;;;;;;2.97;2.73;;;17.10;99.90;;;;;;5016672;28;20321;-57
2022/04/27 12:08:09;;;;;;;2.23;2.13;;;17.10;99.90;;;;;;5017433;28;20207;-56
2022/04/27 12:10:39;;;;;;;3.17;2.07;;;17.30;99.90;;;;;;5019605;28;20180;-59
2022/04/27 12:13:05;;;;;;;2.00;1.90;;;17.50;99.90;;;;;;5014750;28;20238;-60
2022/04/27 12:15:31;;;;;;;1.80;1.70;;;17.70;99.90;;;;;;5023931;28;20210;-55
2022/04/27 12:17:57;;;;;;;2.07;1.90;;;18.00;99.90;;;;;;5020788;28;20172;-55
2022/04/27 12:20:38;;;;;;;2.40;2.20;;;18.20;99.90;;;;;;5019077;28;20184;-54
2022/04/27 12:23:07;;;;;;;1.83;1.73;;;18.70;99.90;;;;;;5011872;28;20183;-56
2022/04/27 12:25:59;;;;;;;1.83;1.73;;;18.90;99.90;;;;;;5011406;28;20203;-57
2022/04/27 12:28:32;;;;;;;2.03;1.93;;;19.10;99.90;;;;;;5011582;28;20638;-57
2022/04/27 12:31:04;;;;;;;2.17;2.07;;;19.30;99.90;;;;;;5009358;28;20259;-57
2022/04/27 12:33:36;;;;;;;2.10;2.00;;;19.30;99.90;;;;;;5010556;28;20213;-58
2022/04/27 12:38:58;;;;;;;2.40;2.20;;;19.10;99.90;;;;;;4992193;28;20204;-54
2022/04/27 12:41:30;;;;;;;2.27;2.17;;;19.20;99.90;;;;;;4991048;28;20177;-55
2022/04/27 12:44:05;;;;;;;2.30;2.10;;;19.20;99.90;;;;;;4991366;28;20276;-58
2022/04/27 12:46:30;;;;;;;2.70;2.50;;;19.10;99.90;;;;;;5000215;28;20242;-55
2022/04/27 12:49:01;;;;;;;2.37;2.17;;;19.10;99.90;;;;;;5011425;28;20181;-58
2022/04/27 12:51:32;;;;;;;2.30;2.10;;;19.00;99.90;;;;;;5011515;28;20620;-55
2022/04/27 12:53:58;;;;;;;2.90;2.10;;;18.80;99.90;;;;;;5010399;28;20200;-57
2022/04/27 12:56:31;;;;;;;2.70;2.50;;;18.70;99.90;;;;;;5011510;28;20709;-53
2022/04/27 12:59:07;;;;;;;2.63;2.43;;;18.40;99.90;;;;;;5011636;28;20207;-56
2022/04/27 13:01:33;;;;;;;2.53;2.10;;;18.00;99.90;;;;;;5011468;28;20171;-55
2022/04/27 13:03:59;;;;;;;3.63;1.90;;;17.80;99.90;;;;;;5009951;28;20196;-59
2022/04/27 13:06:25;;;;;;;1.77;1.67;;;18.50;99.90;;;;;;5011302;28;20228;-58